Aviation Digital Data Service (ADDS)

Output produced by METARs form (0206 UTC 06 December 2020)
found at http://aviationweather.gov/metar/data/
 
KRYY 060150Z 00000KT 10SM CLR 04/03 A3008 RMK AO2 SLP908 T00440028 $
KRYY 052346Z 0600/0624 29004KT P6SM FEW250 
     FM061400 28004KT P6SM FEW120 SCT250 
     FM062000 26005KT P6SM SCT060 BKN100
       
KPUJ 060155Z AUTO 28003KT 10SM CLR 06/01 A3007 RMK AO2
KCNI 060155Z AUTO 27003KT 10SM CLR 06/02 A3008 RMK AO2
KPDK 060153Z 00000KT 10SM CLR 04/03 A3007 RMK AO2 SLP192 T00440028
KPDK 052346Z 0600/0624 29004KT P6SM FEW250 
     FM061400 28004KT P6SM FEW120 SCT250 
     FM062000 26005KT P6SM SCT060 BKN100
       
KRMG 060153Z AUTO 03003KT 10SM CLR 04/02 A3008 RMK AO2 SLP186 T00440022
KATL 060152Z 27005KT 10SM FEW250 07/02 A3007 RMK AO2 SLP186 T00720022
KATL 060158Z 0602/0706 30005KT P6SM FEW250 
     FM061400 29005KT P6SM FEW120 SCT250 
     FM062000 26006KT P6SM SCT060 BKN100 
     FM070300 26006KT P6SM BKN025
       
KFFC 060153Z AUTO 00000KT 10SM CLR 04/03 A3009 RMK AO2 SLP195 T00390028
KGAD 060156Z AUTO 22003KT 10SM CLR 02/02 A3011 RMK AO2 SLP205 T00220017 FZRANO
KCHA 060153Z 00000KT 10SM CLR 06/03 A3009 RMK AO2 SLP192 T00610033 $
KCHA 052320Z 0600/0624 00000KT P6SM FEW250 
     FM061300 00000KT 4SM BR BKN025 
     FM061500 00000KT P6SM BKN250
       
KDNN 060155Z AUTO 00000KT 10SM CLR 04/02 A3010 RMK AO2
KAHN 060151Z AUTO 28005KT 10SM CLR 09/02 A3005 RMK AO2 SLP178 T00890017
KAHN 052346Z 0600/0624 29004KT P6SM FEW250 
     FM061500 28004KT P6SM FEW150 SCT250 
     FM062000 25006KT P6SM SCT080 BKN120
       
KLZU 060156Z AUTO 00000KT 10SM CLR 05/03 A3006 RMK AO2 SLP196 T00500033
KJZP 060155Z AUTO 36003KT 10SM CLR 05/02 A3009 RMK AO2 T00460016
KMCN 060153Z AUTO 29005KT 10SM CLR 07/03 A3007 RMK AO2 SLP183 T00670033
KMCN 052346Z 0600/0624 28003KT P6SM FEW250 
     FM061400 26003KT P6SM FEW150 SCT250 
     FM062000 25005KT P6SM SCT080 BKN120
       
KSAV 060153Z 00000KT 10SM CLR 07/05 A3007 RMK AO2 SLP182 T00720050
KSAV 052334Z 0600/0624 VRB02KT P6SM FEW250 
     FM061800 22005KT P6SM BKN250
       
KWDR 060155Z AUTO 32005KT 10SM CLR 07/01 A3008 RMK AO2
KGVL 060153Z AUTO 25004KT 10SM CLR 07/01 A3007 RMK AO2 SLP183 T00670011
KMGE 060156Z 00000KT 10SM SCT250 05/02 A3006 RMK AO2A SLP186 T00450022 $
TAF KMGE 052200Z 0522/0704 30009KT 9999 FEW250 QNH3005INS 
     BECMG 0615/0616 27009KT 9999 SCT150 BKN250 QNH2990INS 
     BECMG 0620/0621 26007KT 9999 VCSH BKN020 OVC080 QNH2987INS TX15/0620Z
TN01/0612Z